sensor_id;sensor_type;location;lat;lon;timestamp;P1;durP1;ratioP1;P2;durP2;ratioP2
40953;SDS011;26686;50.130;8.710;2022-12-13T00:00:06;28.88;;;21.40;;
40953;SDS011;26686;50.130;8.710;2022-12-13T00:05:10;27.08;;;20.15;;
40953;SDS011;26686;50.130;8.710;2022-12-13T00:10:13;32.00;;;21.77;;
40953;SDS011;26686;50.130;8.710;2022-12-13T00:15:14;31.88;;;22.60;;
40953;SDS011;26686;50.130;8.710;2022-12-13T00:20:16;28.17;;;19.15;;
40953;SDS011;26686;50.130;8.710;2022-12-13T00:25:18;28.73;;;20.25;;
40953;SDS011;26686;50.130;8.710;2022-12-13T00:30:21;32.38;;;22.58;;
40953;SDS011;26686;50.130;8.710;2022-12-13T00:35:22;28.88;;;20.98;;
40953;SDS011;26686;50.130;8.710;2022-12-13T00:40:24;30.00;;;21.33;;
40953;SDS011;26686;50.130;8.710;2022-12-13T00:45:27;28.85;;;20.23;;
40953;SDS011;26686;50.130;8.710;2022-12-13T00:50:29;27.80;;;21.02;;
40953;SDS011;26686;50.130;8.710;2022-12-13T00:55:31;28.58;;;20.17;;
40953;SDS011;26686;50.130;8.710;2022-12-13T01:00:32;31.42;;;21.67;;
40953;SDS011;26686;50.130;8.710;2022-12-13T01:05:34;30.20;;;22.10;;
40953;SDS011;26686;50.130;8.710;2022-12-13T01:10:55;31.15;;;22.17;;
40953;SDS011;26686;50.130;8.710;2022-12-13T01:15:57;30.08;;;20.75;;
40953;SDS011;26686;50.130;8.710;2022-12-13T01:21:19;29.88;;;20.42;;
40953;SDS011;26686;50.130;8.710;2022-12-13T01:26:23;28.95;;;20.67;;
40953;SDS011;26686;50.130;8.710;2022-12-13T01:31:24;29.77;;;20.80;;
40953;SDS011;26686;50.130;8.710;2022-12-13T01:36:26;26.73;;;21.48;;
40953;SDS011;26686;50.130;8.710;2022-12-13T01:41:29;31.05;;;21.73;;
40953;SDS011;26686;50.130;8.710;2022-12-13T01:46:32;30.45;;;21.30;;
40953;SDS011;26686;50.130;8.710;2022-12-13T01:51:36;31.27;;;22.08;;
40953;SDS011;26686;50.130;8.710;2022-12-13T01:56:46;32.22;;;21.08;;
40953;SDS011;26686;50.130;8.710;2022-12-13T02:02:01;30.98;;;21.08;;
40953;SDS011;26686;50.130;8.710;2022-12-13T02:07:02;33.47;;;21.58;;
40953;SDS011;26686;50.130;8.710;2022-12-13T02:12:04;27.02;;;20.35;;
40953;SDS011;26686;50.130;8.710;2022-12-13T02:17:12;30.85;;;20.30;;
40953;SDS011;26686;50.130;8.710;2022-12-13T02:43:58;24.23;;;15.60;;
40953;SDS011;26686;50.130;8.710;2022-12-13T02:49:23;28.90;;;19.23;;
40953;SDS011;26686;50.130;8.710;2022-12-13T02:54:28;29.60;;;19.58;;
40953;SDS011;26686;50.130;8.710;2022-12-13T02:59:34;30.17;;;21.70;;
40953;SDS011;26686;50.130;8.710;2022-12-13T03:10:20;29.65;;;20.27;;
40953;SDS011;26686;50.130;8.710;2022-12-13T03:21:09;27.98;;;19.48;;
40953;SDS011;26686;50.130;8.710;2022-12-13T03:26:12;28.92;;;18.65;;
40953;SDS011;26686;50.130;8.710;2022-12-13T03:31:17;27.55;;;18.00;;
40953;SDS011;26686;50.130;8.710;2022-12-13T03:36:19;31.83;;;19.73;;
40953;SDS011;26686;50.130;8.710;2022-12-13T03:41:23;25.52;;;17.95;;
40953;SDS011;26686;50.130;8.710;2022-12-13T03:46:31;24.27;;;16.90;;
40953;SDS011;26686;50.130;8.710;2022-12-13T03:51:33;26.52;;;16.77;;
40953;SDS011;26686;50.130;8.710;2022-12-13T03:56:35;25.73;;;16.55;;
40953;SDS011;26686;50.130;8.710;2022-12-13T04:01:36;29.38;;;17.80;;
40953;SDS011;26686;50.130;8.710;2022-12-13T04:06:38;26.52;;;17.10;;
40953;SDS011;26686;50.130;8.710;2022-12-13T04:11:39;27.65;;;17.67;;
40953;SDS011;26686;50.130;8.710;2022-12-13T04:16:59;25.08;;;16.98;;
40953;SDS011;26686;50.130;8.710;2022-12-13T04:22:01;30.05;;;18.52;;
40953;SDS011;26686;50.130;8.710;2022-12-13T04:27:02;26.60;;;17.35;;
40953;SDS011;26686;50.130;8.710;2022-12-13T04:32:04;26.48;;;17.00;;
40953;SDS011;26686;50.130;8.710;2022-12-13T04:37:26;25.67;;;17.30;;
40953;SDS011;26686;50.130;8.710;2022-12-13T04:42:27;24.38;;;16.17;;
40953;SDS011;26686;50.130;8.710;2022-12-13T04:47:28;28.50;;;18.58;;
40953;SDS011;26686;50.130;8.710;2022-12-13T04:52:29;28.85;;;17.70;;
40953;SDS011;26686;50.130;8.710;2022-12-13T04:57:31;26.02;;;16.70;;
40953;SDS011;26686;50.130;8.710;2022-12-13T05:02:32;26.42;;;16.60;;
40953;SDS011;26686;50.130;8.710;2022-12-13T05:07:34;25.92;;;17.08;;
40953;SDS011;26686;50.130;8.710;2022-12-13T05:12:42;29.92;;;18.67;;
40953;SDS011;26686;50.130;8.710;2022-12-13T05:17:44;27.48;;;18.90;;
40953;SDS011;26686;50.130;8.710;2022-12-13T05:22:45;27.75;;;17.27;;
40953;SDS011;26686;50.130;8.710;2022-12-13T05:27:46;24.85;;;17.40;;
40953;SDS011;26686;50.130;8.710;2022-12-13T05:32:48;27.60;;;17.40;;
40953;SDS011;26686;50.130;8.710;2022-12-13T05:37:50;26.45;;;17.15;;
40953;SDS011;26686;50.130;8.710;2022-12-13T05:42:55;29.60;;;18.23;;
40953;SDS011;26686;50.130;8.710;2022-12-13T05:48:02;24.70;;;16.63;;
40953;SDS011;26686;50.130;8.710;2022-12-13T05:53:03;31.10;;;19.73;;
40953;SDS011;26686;50.130;8.710;2022-12-13T05:58:05;28.15;;;18.17;;
40953;SDS011;26686;50.130;8.710;2022-12-13T06:03:13;26.60;;;17.25;;
40953;SDS011;26686;50.130;8.710;2022-12-13T06:08:15;27.85;;;17.13;;
40953;SDS011;26686;50.130;8.710;2022-12-13T06:13:25;29.00;;;19.02;;
40953;SDS011;26686;50.130;8.710;2022-12-13T06:18:33;27.30;;;17.80;;
40953;SDS011;26686;50.130;8.710;2022-12-13T06:23:35;26.55;;;16.58;;
40953;SDS011;26686;50.130;8.710;2022-12-13T06:28:37;26.70;;;18.05;;
40953;SDS011;26686;50.130;8.710;2022-12-13T06:33:38;25.90;;;17.25;;
40953;SDS011;26686;50.130;8.710;2022-12-13T06:38:40;28.63;;;17.95;;
40953;SDS011;26686;50.130;8.710;2022-12-13T06:43:44;25.60;;;18.00;;
40953;SDS011;26686;50.130;8.710;2022-12-13T06:48:46;25.98;;;17.60;;
40953;SDS011;26686;50.130;8.710;2022-12-13T06:53:49;25.75;;;17.13;;
40953;SDS011;26686;50.130;8.710;2022-12-13T06:58:50;25.20;;;17.15;;
40953;SDS011;26686;50.130;8.710;2022-12-13T07:03:55;28.42;;;18.27;;
40953;SDS011;26686;50.130;8.710;2022-12-13T07:08:57;24.55;;;17.75;;
40953;SDS011;26686;50.130;8.710;2022-12-13T07:13:59;24.48;;;16.90;;
40953;SDS011;26686;50.130;8.710;2022-12-13T07:19:01;25.38;;;16.05;;
40953;SDS011;26686;50.130;8.710;2022-12-13T07:24:23;26.27;;;16.30;;
40953;SDS011;26686;50.130;8.710;2022-12-13T07:29:24;29.88;;;19.08;;
40953;SDS011;26686;50.130;8.710;2022-12-13T07:34:25;24.55;;;16.15;;
40953;SDS011;26686;50.130;8.710;2022-12-13T07:39:27;27.90;;;18.55;;
40953;SDS011;26686;50.130;8.710;2022-12-13T07:44:28;26.75;;;17.00;;
40953;SDS011;26686;50.130;8.710;2022-12-13T07:49:30;27.70;;;17.17;;
40953;SDS011;26686;50.130;8.710;2022-12-13T07:54:31;26.70;;;16.83;;
40953;SDS011;26686;50.130;8.710;2022-12-13T07:59:33;25.98;;;16.38;;
40953;SDS011;26686;50.130;8.710;2022-12-13T08:04:34;23.20;;;16.60;;
40953;SDS011;26686;50.130;8.710;2022-12-13T08:09:39;24.60;;;16.55;;
40953;SDS011;26686;50.130;8.710;2022-12-13T08:14:40;27.73;;;17.30;;
40953;SDS011;26686;50.130;8.710;2022-12-13T08:19:41;23.73;;;16.23;;
40953;SDS011;26686;50.130;8.710;2022-12-13T08:24:43;23.70;;;15.55;;
40953;SDS011;26686;50.130;8.710;2022-12-13T08:29:44;25.98;;;17.92;;
40953;SDS011;26686;50.130;8.710;2022-12-13T08:34:46;26.48;;;16.98;;
40953;SDS011;26686;50.130;8.710;2022-12-13T08:39:47;26.50;;;17.85;;
40953;SDS011;26686;50.130;8.710;2022-12-13T08:44:49;25.67;;;18.17;;
40953;SDS011;26686;50.130;8.710;2022-12-13T08:49:52;24.17;;;17.58;;
40953;SDS011;26686;50.130;8.710;2022-12-13T08:54:55;23.80;;;17.50;;
40953;SDS011;26686;50.130;8.710;2022-12-13T08:59:56;28.70;;;19.52;;
40953;SDS011;26686;50.130;8.710;2022-12-13T09:04:58;27.42;;;17.90;;
40953;SDS011;26686;50.130;8.710;2022-12-13T09:09:59;28.02;;;16.95;;
40953;SDS011;26686;50.130;8.710;2022-12-13T09:15:21;24.05;;;17.77;;
40953;SDS011;26686;50.130;8.710;2022-12-13T09:20:23;25.88;;;17.05;;
40953;SDS011;26686;50.130;8.710;2022-12-13T09:25:30;28.23;;;18.40;;
40953;SDS011;26686;50.130;8.710;2022-12-13T09:30:37;24.35;;;16.65;;
40953;SDS011;26686;50.130;8.710;2022-12-13T09:35:39;22.63;;;16.15;;
40953;SDS011;26686;50.130;8.710;2022-12-13T09:40:41;27.40;;;16.75;;
40953;SDS011;26686;50.130;8.710;2022-12-13T09:45:45;25.73;;;16.63;;
40953;SDS011;26686;50.130;8.710;2022-12-13T09:50:48;24.05;;;17.10;;
40953;SDS011;26686;50.130;8.710;2022-12-13T09:55:59;24.23;;;16.45;;
40953;SDS011;26686;50.130;8.710;2022-12-13T10:01:11;26.58;;;17.63;;
40953;SDS011;26686;50.130;8.710;2022-12-13T10:06:13;24.48;;;17.45;;
40953;SDS011;26686;50.130;8.710;2022-12-13T10:11:24;24.52;;;17.88;;
40953;SDS011;26686;50.130;8.710;2022-12-13T10:21:37;23.45;;;16.10;;
40953;SDS011;26686;50.130;8.710;2022-12-13T10:26:43;22.33;;;15.77;;
40953;SDS011;26686;50.130;8.710;2022-12-13T10:31:45;23.00;;;16.15;;
40953;SDS011;26686;50.130;8.710;2022-12-13T10:36:48;20.33;;;16.00;;
40953;SDS011;26686;50.130;8.710;2022-12-13T10:41:55;21.90;;;16.00;;
40953;SDS011;26686;50.130;8.710;2022-12-13T10:57:32;20.60;;;14.63;;
40953;SDS011;26686;50.130;8.710;2022-12-13T11:02:37;20.13;;;15.80;;
40953;SDS011;26686;50.130;8.710;2022-12-13T11:07:39;17.10;;;13.95;;
40953;SDS011;26686;50.130;8.710;2022-12-13T11:12:41;19.05;;;15.38;;
40953;SDS011;26686;50.130;8.710;2022-12-13T11:17:50;17.48;;;14.30;;
40953;SDS011;26686;50.130;8.710;2022-12-13T11:22:58;16.67;;;14.38;;
40953;SDS011;26686;50.130;8.710;2022-12-13T11:34:05;15.02;;;13.40;;
40953;SDS011;26686;50.130;8.710;2022-12-13T11:49:54;14.65;;;13.25;;
40953;SDS011;26686;50.130;8.710;2022-12-13T11:55:02;14.02;;;12.48;;
40953;SDS011;26686;50.130;8.710;2022-12-13T12:05:36;16.75;;;14.95;;
40953;SDS011;26686;50.130;8.710;2022-12-13T12:10:41;14.85;;;13.35;;
40953;SDS011;26686;50.130;8.710;2022-12-13T12:16:05;15.30;;;13.82;;
40953;SDS011;26686;50.130;8.710;2022-12-13T12:27:15;16.70;;;14.63;;
40953;SDS011;26686;50.130;8.710;2022-12-13T12:37:51;15.45;;;13.95;;
40953;SDS011;26686;50.130;8.710;2022-12-13T12:48:29;15.50;;;14.00;;
40953;SDS011;26686;50.130;8.710;2022-12-13T12:59:49;15.63;;;13.60;;
40953;SDS011;26686;50.130;8.710;2022-12-13T13:10:27;29.20;;;17.60;;
40953;SDS011;26686;50.130;8.710;2022-12-13T13:20:33;15.43;;;13.82;;
40953;SDS011;26686;50.130;8.710;2022-12-13T13:25:35;17.38;;;15.30;;
40953;SDS011;26686;50.130;8.710;2022-12-13T13:31:04;15.65;;;14.00;;
40953;SDS011;26686;50.130;8.710;2022-12-13T13:36:08;17.02;;;15.05;;
40953;SDS011;26686;50.130;8.710;2022-12-13T13:47:08;16.50;;;14.27;;
40953;SDS011;26686;50.130;8.710;2022-12-13T13:52:18;16.95;;;14.43;;
40953;SDS011;26686;50.130;8.710;2022-12-13T14:03:39;16.95;;;15.02;;
40953;SDS011;26686;50.130;8.710;2022-12-13T14:31:24;22.38;;;16.40;;
40953;SDS011;26686;50.130;8.710;2022-12-13T14:36:34;22.92;;;16.67;;
40953;SDS011;26686;50.130;8.710;2022-12-13T14:41:44;22.85;;;17.00;;
40953;SDS011;26686;50.130;8.710;2022-12-13T14:47:01;21.70;;;16.58;;
40953;SDS011;26686;50.130;8.710;2022-12-13T14:52:06;20.58;;;15.77;;
40953;SDS011;26686;50.130;8.710;2022-12-13T14:57:28;22.65;;;16.52;;
40953;SDS011;26686;50.130;8.710;2022-12-13T15:02:31;21.67;;;16.17;;
40953;SDS011;26686;50.130;8.710;2022-12-13T15:07:37;21.75;;;15.70;;
40953;SDS011;26686;50.130;8.710;2022-12-13T15:12:44;21.45;;;15.70;;
40953;SDS011;26686;50.130;8.710;2022-12-13T15:17:47;19.52;;;14.93;;
40953;SDS011;26686;50.130;8.710;2022-12-13T15:22:54;19.35;;;15.90;;
40953;SDS011;26686;50.130;8.710;2022-12-13T15:28:02;20.80;;;14.75;;
40953;SDS011;26686;50.130;8.710;2022-12-13T15:33:06;18.42;;;15.43;;
40953;SDS011;26686;50.130;8.710;2022-12-13T15:38:18;21.92;;;16.02;;
40953;SDS011;26686;50.130;8.710;2022-12-13T15:43:34;19.58;;;14.85;;
40953;SDS011;26686;50.130;8.710;2022-12-13T15:48:39;19.10;;;15.60;;
40953;SDS011;26686;50.130;8.710;2022-12-13T15:59:25;19.45;;;14.60;;
40953;SDS011;26686;50.130;8.710;2022-12-13T16:04:31;18.05;;;14.00;;
40953;SDS011;26686;50.130;8.710;2022-12-13T16:09:34;19.75;;;14.25;;
40953;SDS011;26686;50.130;8.710;2022-12-13T16:14:41;12.52;;;10.35;;
40953;SDS011;26686;50.130;8.710;2022-12-13T16:19:53;20.35;;;14.13;;
40953;SDS011;26686;50.130;8.710;2022-12-13T16:24:56;21.33;;;17.75;;
40953;SDS011;26686;50.130;8.710;2022-12-13T16:29:57;19.50;;;16.13;;
40953;SDS011;26686;50.130;8.710;2022-12-13T16:34:58;15.98;;;13.55;;
40953;SDS011;26686;50.130;8.710;2022-12-13T16:40:00;15.88;;;12.63;;
40953;SDS011;26686;50.130;8.710;2022-12-13T16:45:16;17.17;;;13.57;;
40953;SDS011;26686;50.130;8.710;2022-12-13T16:50:41;13.48;;;10.23;;
40953;SDS011;26686;50.130;8.710;2022-12-13T16:55:45;13.15;;;11.40;;
40953;SDS011;26686;50.130;8.710;2022-12-13T17:00:58;15.48;;;10.93;;
40953;SDS011;26686;50.130;8.710;2022-12-13T17:06:02;13.45;;;10.82;;
40953;SDS011;26686;50.130;8.710;2022-12-13T17:11:03;13.85;;;10.90;;
40953;SDS011;26686;50.130;8.710;2022-12-13T17:16:07;17.35;;;10.85;;
40953;SDS011;26686;50.130;8.710;2022-12-13T17:21:09;12.77;;;10.50;;
40953;SDS011;26686;50.130;8.710;2022-12-13T17:26:11;15.43;;;11.38;;
40953;SDS011;26686;50.130;8.710;2022-12-13T17:31:12;15.30;;;11.50;;
40953;SDS011;26686;50.130;8.710;2022-12-13T17:36:14;12.68;;;10.38;;
40953;SDS011;26686;50.130;8.710;2022-12-13T17:41:16;13.45;;;11.05;;
40953;SDS011;26686;50.130;8.710;2022-12-13T17:46:18;12.40;;;9.88;;
40953;SDS011;26686;50.130;8.710;2022-12-13T17:51:20;15.88;;;10.85;;
40953;SDS011;26686;50.130;8.710;2022-12-13T17:56:21;12.05;;;9.85;;
40953;SDS011;26686;50.130;8.710;2022-12-13T18:01:24;12.35;;;10.35;;
40953;SDS011;26686;50.130;8.710;2022-12-13T18:06:25;14.90;;;11.43;;
40953;SDS011;26686;50.130;8.710;2022-12-13T18:11:27;14.20;;;10.90;;
40953;SDS011;26686;50.130;8.710;2022-12-13T18:16:34;12.93;;;10.23;;
40953;SDS011;26686;50.130;8.710;2022-12-13T18:21:39;12.65;;;10.52;;
40953;SDS011;26686;50.130;8.710;2022-12-13T18:26:43;11.98;;;10.55;;
40953;SDS011;26686;50.130;8.710;2022-12-13T18:31:44;16.98;;;10.27;;
40953;SDS011;26686;50.130;8.710;2022-12-13T18:36:46;13.18;;;11.48;;
40953;SDS011;26686;50.130;8.710;2022-12-13T18:41:47;15.88;;;10.10;;
40953;SDS011;26686;50.130;8.710;2022-12-13T18:46:48;11.23;;;8.82;;
40953;SDS011;26686;50.130;8.710;2022-12-13T18:51:51;13.50;;;10.02;;
40953;SDS011;26686;50.130;8.710;2022-12-13T18:56:52;17.52;;;12.20;;
40953;SDS011;26686;50.130;8.710;2022-12-13T19:01:54;14.95;;;11.20;;
40953;SDS011;26686;50.130;8.710;2022-12-13T19:06:55;14.32;;;11.40;;
40953;SDS011;26686;50.130;8.710;2022-12-13T19:11:57;12.45;;;10.05;;
40953;SDS011;26686;50.130;8.710;2022-12-13T19:16:59;13.18;;;10.32;;
40953;SDS011;26686;50.130;8.710;2022-12-13T19:22:00;16.95;;;11.32;;
40953;SDS011;26686;50.130;8.710;2022-12-13T19:27:01;13.23;;;10.95;;
40953;SDS011;26686;50.130;8.710;2022-12-13T19:32:03;12.38;;;10.25;;
40953;SDS011;26686;50.130;8.710;2022-12-13T19:37:04;13.38;;;11.27;;
40953;SDS011;26686;50.130;8.710;2022-12-13T19:42:06;12.45;;;11.13;;
40953;SDS011;26686;50.130;8.710;2022-12-13T19:47:08;13.93;;;11.57;;
40953;SDS011;26686;50.130;8.710;2022-12-13T19:52:11;15.52;;;12.73;;
40953;SDS011;26686;50.130;8.710;2022-12-13T19:57:12;15.02;;;12.55;;
40953;SDS011;26686;50.130;8.710;2022-12-13T20:02:14;16.35;;;13.10;;
40953;SDS011;26686;50.130;8.710;2022-12-13T20:07:15;16.58;;;13.15;;
40953;SDS011;26686;50.130;8.710;2022-12-13T20:12:17;17.05;;;12.77;;
40953;SDS011;26686;50.130;8.710;2022-12-13T20:17:19;15.88;;;12.73;;
40953;SDS011;26686;50.130;8.710;2022-12-13T20:22:20;17.90;;;13.73;;
40953;SDS011;26686;50.130;8.710;2022-12-13T20:27:21;17.52;;;12.80;;
40953;SDS011;26686;50.130;8.710;2022-12-13T20:32:23;15.20;;;12.57;;
40953;SDS011;26686;50.130;8.710;2022-12-13T20:37:24;17.02;;;14.35;;
40953;SDS011;26686;50.130;8.710;2022-12-13T20:42:27;15.02;;;11.95;;
40953;SDS011;26686;50.130;8.710;2022-12-13T20:47:30;15.20;;;12.30;;
40953;SDS011;26686;50.130;8.710;2022-12-13T20:52:37;15.95;;;12.65;;
40953;SDS011;26686;50.130;8.710;2022-12-13T20:57:41;14.75;;;10.82;;
40953;SDS011;26686;50.130;8.710;2022-12-13T21:02:42;15.38;;;11.55;;
40953;SDS011;26686;50.130;8.710;2022-12-13T21:07:44;15.77;;;12.60;;
40953;SDS011;26686;50.130;8.710;2022-12-13T21:13:04;15.73;;;12.65;;
40953;SDS011;26686;50.130;8.710;2022-12-13T21:18:06;14.65;;;12.25;;
40953;SDS011;26686;50.130;8.710;2022-12-13T21:23:07;17.63;;;12.80;;
40953;SDS011;26686;50.130;8.710;2022-12-13T21:28:08;16.13;;;13.23;;
40953;SDS011;26686;50.130;8.710;2022-12-13T21:33:10;18.17;;;13.13;;
40953;SDS011;26686;50.130;8.710;2022-12-13T21:38:11;16.75;;;13.15;;
40953;SDS011;26686;50.130;8.710;2022-12-13T21:43:13;15.88;;;12.50;;
40953;SDS011;26686;50.130;8.710;2022-12-13T21:48:15;18.05;;;12.45;;
40953;SDS011;26686;50.130;8.710;2022-12-13T21:53:16;14.90;;;12.13;;
40953;SDS011;26686;50.130;8.710;2022-12-13T21:58:18;16.52;;;12.95;;
40953;SDS011;26686;50.130;8.710;2022-12-13T22:03:38;13.95;;;11.23;;
40953;SDS011;26686;50.130;8.710;2022-12-13T22:08:39;13.68;;;11.00;;
40953;SDS011;26686;50.130;8.710;2022-12-13T22:13:40;14.82;;;11.80;;
40953;SDS011;26686;50.130;8.710;2022-12-13T22:18:48;12.02;;;9.55;;
40953;SDS011;26686;50.130;8.710;2022-12-13T22:23:53;15.27;;;10.25;;
40953;SDS011;26686;50.130;8.710;2022-12-13T22:28:56;13.77;;;10.35;;
40953;SDS011;26686;50.130;8.710;2022-12-13T22:33:58;12.20;;;9.60;;
40953;SDS011;26686;50.130;8.710;2022-12-13T22:38:59;13.32;;;10.25;;
40953;SDS011;26686;50.130;8.710;2022-12-13T22:44:01;11.30;;;9.95;;
40953;SDS011;26686;50.130;8.710;2022-12-13T22:49:03;12.63;;;9.48;;
40953;SDS011;26686;50.130;8.710;2022-12-13T22:54:05;10.65;;;9.25;;
40953;SDS011;26686;50.130;8.710;2022-12-13T22:59:07;13.25;;;9.40;;
40953;SDS011;26686;50.130;8.710;2022-12-13T23:04:09;13.93;;;10.85;;
40953;SDS011;26686;50.130;8.710;2022-12-13T23:09:12;12.57;;;9.60;;
40953;SDS011;26686;50.130;8.710;2022-12-13T23:14:16;12.50;;;9.75;;
40953;SDS011;26686;50.130;8.710;2022-12-13T23:19:25;14.15;;;9.27;;
40953;SDS011;26686;50.130;8.710;2022-12-13T23:24:48;10.90;;;8.73;;
40953;SDS011;26686;50.130;8.710;2022-12-13T23:29:50;10.52;;;8.35;;
40953;SDS011;26686;50.130;8.710;2022-12-13T23:34:51;9.07;;;7.78;;
40953;SDS011;26686;50.130;8.710;2022-12-13T23:39:53;11.60;;;8.85;;
40953;SDS011;26686;50.130;8.710;2022-12-13T23:44:54;12.50;;;9.65;;
40953;SDS011;26686;50.130;8.710;2022-12-13T23:49:56;11.35;;;8.60;;
40953;SDS011;26686;50.130;8.710;2022-12-13T23:54:57;11.15;;;8.48;;
40953;SDS011;26686;50.130;8.710;2022-12-13T23:59:58;10.73;;;8.45;;
